createdAt,value
2022-09-27T00:00:42.362Z,14.65
2022-09-27T00:03:13.214Z,14.66
2022-09-27T00:05:41.763Z,14.68
2022-09-27T00:08:09.460Z,14.67
2022-09-27T00:10:36.568Z,14.66
2022-09-27T00:13:03.720Z,14.64
2022-09-27T00:15:30.960Z,14.66
2022-09-27T00:17:58.060Z,14.66
2022-09-27T00:20:25.780Z,14.64
2022-09-27T00:22:52.860Z,14.61
2022-09-27T00:25:20.062Z,14.61
2022-09-27T00:27:47.172Z,14.54
2022-09-27T00:30:14.387Z,14.51
2022-09-27T00:32:41.539Z,14.46
2022-09-27T00:35:09.001Z,14.43
2022-09-27T00:37:36.080Z,14.38
2022-09-27T00:40:03.420Z,14.34
2022-09-27T00:42:30.441Z,14.32
2022-09-27T00:45:04.952Z,14.35
2022-09-27T00:48:05.761Z,14.37
2022-09-27T00:50:43.381Z,14.42
2022-09-27T00:53:24.201Z,14.41
2022-09-27T00:55:57.280Z,14.44
2022-09-27T00:58:30.521Z,14.46
2022-09-27T01:01:02.842Z,14.45
2022-09-27T01:04:02.558Z,14.42
2022-09-27T01:06:29.981Z,14.47
2022-09-27T01:08:57.041Z,14.45
2022-09-27T01:11:40.121Z,14.47
2022-09-27T01:14:49.417Z,14.47
2022-09-27T01:17:42.480Z,14.48
2022-09-27T01:20:41.320Z,14.39
2022-09-27T01:23:42.508Z,14.44
2022-09-27T01:26:09.871Z,14.39
2022-09-27T01:28:58.900Z,14.43
2022-09-27T01:31:35.240Z,14.45
2022-09-27T01:34:07.780Z,14.46
2022-09-27T01:36:57.941Z,14.49
2022-09-27T01:39:53.464Z,14.51
2022-09-27T01:42:46.080Z,14.50
2022-09-27T01:45:17.842Z,14.50
2022-09-27T01:48:12.441Z,14.54
2022-09-27T01:50:57.781Z,14.56
2022-09-27T01:53:36.949Z,14.56
2022-09-27T01:56:46.629Z,14.57
2022-09-27T01:59:21.288Z,14.61
2022-09-27T02:02:03.083Z,14.61
2022-09-27T02:04:45.320Z,14.60
2022-09-27T02:07:51.980Z,14.61
2022-09-27T02:10:23.487Z,14.61
2022-09-27T02:13:13.740Z,14.61
2022-09-27T02:16:04.998Z,14.63
2022-09-27T02:18:53.100Z,14.62
2022-09-27T02:21:21.481Z,14.62
2022-09-27T02:23:55.241Z,14.65
2022-09-27T02:26:38.241Z,14.65
2022-09-27T02:29:43.669Z,14.64
2022-09-27T02:32:11.006Z,14.62
2022-09-27T02:34:41.261Z,14.56
2022-09-27T02:37:08.856Z,14.55
2022-09-27T02:39:36.040Z,14.56
2022-09-27T02:42:07.421Z,14.54
2022-09-27T02:44:36.081Z,14.55
2022-09-27T02:47:03.340Z,14.49
2022-09-27T02:49:44.020Z,14.47
2022-09-27T02:52:31.521Z,14.36
2022-09-27T02:55:17.408Z,14.39
2022-09-27T02:58:14.040Z,14.32
2022-09-27T03:01:18.178Z,14.35
2022-09-27T03:04:28.191Z,14.34
2022-09-27T03:06:57.161Z,14.35
2022-09-27T03:09:41.001Z,14.35
2022-09-27T03:12:08.048Z,14.34
2022-09-27T03:14:35.141Z,14.31
2022-09-27T03:17:15.760Z,14.35
2022-09-27T03:20:07.169Z,14.33
2022-09-27T03:22:48.002Z,14.31
2022-09-27T03:25:15.363Z,14.28
2022-09-27T03:27:44.501Z,14.29
2022-09-27T03:30:14.347Z,14.30
2022-09-27T03:32:45.360Z,14.23
2022-09-27T03:35:39.122Z,14.24
2022-09-27T03:38:07.621Z,14.24
2022-09-27T03:40:34.874Z,14.25
2022-09-27T03:43:12.340Z,14.25
2022-09-27T03:45:39.400Z,14.26
2022-09-27T03:48:09.840Z,14.27
2022-09-27T03:50:37.540Z,14.29
2022-09-27T03:53:04.783Z,14.31
2022-09-27T03:55:32.145Z,14.34
2022-09-27T03:57:59.220Z,14.35
2022-09-27T04:00:26.320Z,14.34
2022-09-27T04:02:53.488Z,14.33
2022-09-27T04:05:24.502Z,14.32
2022-09-27T04:07:56.442Z,14.32
2022-09-27T04:10:24.120Z,14.30
2022-09-27T04:12:51.681Z,14.30
2022-09-27T04:15:21.461Z,14.33
2022-09-27T04:17:51.609Z,14.35
2022-09-27T04:20:39.008Z,14.38
2022-09-27T04:23:12.400Z,14.35
2022-09-27T04:25:44.561Z,14.34
2022-09-27T04:28:54.469Z,14.35
2022-09-27T04:31:22.123Z,14.37
2022-09-27T04:33:55.342Z,14.36
2022-09-27T04:36:26.923Z,14.36
2022-09-27T04:39:08.395Z,14.40
2022-09-27T04:41:38.354Z,14.36
2022-09-27T04:44:06.766Z,14.34
2022-09-27T04:46:34.893Z,14.33
2022-09-27T04:49:02.673Z,14.32
2022-09-27T04:51:31.723Z,14.29
2022-09-27T04:53:58.843Z,14.26
2022-09-27T04:56:29.665Z,14.25
2022-09-27T04:58:56.726Z,14.27
2022-09-27T05:01:23.811Z,14.26
2022-09-27T05:04:08.965Z,14.24
2022-09-27T05:06:39.392Z,14.25
2022-09-27T05:09:16.093Z,14.21
2022-09-27T05:12:07.727Z,14.20
2022-09-27T05:14:47.425Z,14.20
2022-09-27T05:17:18.953Z,14.17
2022-09-27T05:19:46.173Z,14.14
2022-09-27T05:22:27.683Z,14.12
2022-09-27T05:24:54.944Z,14.17
2022-09-27T05:27:21.944Z,14.15
2022-09-27T05:29:49.104Z,14.21
2022-09-27T05:32:26.038Z,14.19
2022-09-27T05:35:13.144Z,14.20
2022-09-27T05:37:40.863Z,14.19
2022-09-27T05:40:22.455Z,14.18
2022-09-27T05:42:50.665Z,14.13
2022-09-27T05:45:18.563Z,14.16
2022-09-27T05:48:00.885Z,14.16
2022-09-27T05:50:28.483Z,14.15
2022-09-27T05:52:55.647Z,14.14
2022-09-27T05:55:24.065Z,14.11
2022-09-27T05:58:04.646Z,14.17
2022-09-27T06:00:46.645Z,14.22
2022-09-27T06:03:47.405Z,14.24
2022-09-27T06:06:40.573Z,14.23
2022-09-27T06:09:13.326Z,14.24
2022-09-27T06:11:43.126Z,14.24
2022-09-27T06:14:14.673Z,14.24
2022-09-27T06:16:56.953Z,14.23
2022-09-27T06:19:27.673Z,14.22
2022-09-27T06:21:55.784Z,14.26
2022-09-27T06:24:27.554Z,14.25
2022-09-27T06:26:54.863Z,14.26
2022-09-27T06:29:42.184Z,14.30
2022-09-27T06:32:22.303Z,14.30
2022-09-27T06:35:14.047Z,14.31
2022-09-27T06:37:41.173Z,14.33
2022-09-27T06:40:09.354Z,14.32
2022-09-27T06:42:55.153Z,14.33
2022-09-27T06:45:43.000Z,14.37
2022-09-27T06:48:29.434Z,14.37
2022-09-27T06:51:11.063Z,14.41
2022-09-27T06:53:38.194Z,14.46
2022-09-27T06:56:05.311Z,14.44
2022-09-27T06:59:02.534Z,14.50
2022-09-27T07:01:55.963Z,14.54
2022-09-27T07:04:59.203Z,14.57
2022-09-27T07:07:39.064Z,14.59
2022-09-27T07:10:09.882Z,14.62
2022-09-27T07:12:37.993Z,14.62
2022-09-27T07:15:06.564Z,14.63
2022-09-27T07:17:33.652Z,14.68
2022-09-27T07:20:01.257Z,14.67
2022-09-27T07:22:30.144Z,14.70
2022-09-27T07:25:01.721Z,14.70
2022-09-27T07:27:29.062Z,14.78
2022-09-27T07:29:56.004Z,14.81
2022-09-27T07:32:24.841Z,14.91
2022-09-27T07:34:53.193Z,14.96
2022-09-27T07:37:21.461Z,14.97
2022-09-27T07:39:49.102Z,15.01
2022-09-27T07:42:16.144Z,15.05
2022-09-27T07:44:46.482Z,15.10
2022-09-27T07:47:42.323Z,15.16
2022-09-27T07:50:21.436Z,15.21
2022-09-27T07:53:05.053Z,15.24
2022-09-27T07:55:55.143Z,15.23
2022-09-27T07:58:28.397Z,15.27
2022-09-27T08:01:00.896Z,15.29
2022-09-27T08:03:28.694Z,15.34
2022-09-27T08:05:55.703Z,15.31
2022-09-27T08:08:22.854Z,15.28
2022-09-27T08:10:51.133Z,15.28
2022-09-27T08:13:20.652Z,15.31
2022-09-27T08:15:52.745Z,15.31
2022-09-27T08:18:22.287Z,15.34
2022-09-27T08:21:01.193Z,15.38
2022-09-27T08:23:57.453Z,15.42
2022-09-27T08:26:33.024Z,15.50
2022-09-27T08:29:13.457Z,15.57
2022-09-27T08:31:51.468Z,15.68
2022-09-27T08:34:20.604Z,15.80
2022-09-27T08:36:47.894Z,15.95
2022-09-27T08:39:15.668Z,16.00
2022-09-27T08:42:03.053Z,16.25
2022-09-27T08:44:51.163Z,16.40
2022-09-27T08:47:25.674Z,16.50
2022-09-27T08:50:02.786Z,16.57
2022-09-27T08:52:35.703Z,16.57
2022-09-27T08:55:22.473Z,16.67
2022-09-27T08:57:55.787Z,16.63
2022-09-27T09:00:24.505Z,16.76
2022-09-27T09:02:51.994Z,16.78
2022-09-27T09:05:30.315Z,16.77
2022-09-27T09:08:03.343Z,16.78
2022-09-27T09:11:13.933Z,16.71
2022-09-27T09:13:53.747Z,16.84
2022-09-27T09:16:39.142Z,16.78
2022-09-27T09:19:47.654Z,16.87
2022-09-27T09:23:08.732Z,16.93
2022-09-27T09:25:55.293Z,17.03
2022-09-27T09:28:44.964Z,17.03
2022-09-27T09:31:39.489Z,17.13
2022-09-27T09:34:20.833Z,17.19
2022-09-27T09:37:04.363Z,17.26
2022-09-27T09:39:39.814Z,17.29
2022-09-27T09:42:13.265Z,17.24
2022-09-27T09:44:47.114Z,17.17
2022-09-27T09:47:44.023Z,17.14
2022-09-27T09:50:19.404Z,17.12
2022-09-27T09:52:54.593Z,17.16
2022-09-27T09:55:28.834Z,17.16
2022-09-27T09:58:21.644Z,17.20
2022-09-27T10:00:57.286Z,17.26
2022-09-27T10:03:24.753Z,17.27
2022-09-27T10:05:52.283Z,17.15
2022-09-27T10:08:23.086Z,17.18
2022-09-27T10:11:01.143Z,17.08
2022-09-27T10:13:56.707Z,17.02
2022-09-27T10:16:26.500Z,16.76
2022-09-27T10:19:00.426Z,16.65
2022-09-27T10:21:30.687Z,16.60
2022-09-27T10:24:17.656Z,16.40
2022-09-27T10:27:06.805Z,16.35
2022-09-27T10:29:39.426Z,16.26
2022-09-27T10:32:37.389Z,16.20
2022-09-27T10:35:37.105Z,16.02
2022-09-27T10:38:32.202Z,15.84
2022-09-27T10:41:38.443Z,15.73
2022-09-27T10:44:32.843Z,15.60
2022-09-27T10:47:26.596Z,15.46
2022-09-27T10:50:08.126Z,15.36
2022-09-27T10:53:05.001Z,15.25
2022-09-27T10:55:37.322Z,15.15
2022-09-27T10:58:04.875Z,15.11
2022-09-27T11:00:37.121Z,15.03
2022-09-27T11:13:33.043Z,14.22
2022-09-27T11:16:35.146Z,14.20
2022-09-27T11:19:51.593Z,14.33
2022-09-27T11:22:48.633Z,14.36
2022-09-27T11:25:44.146Z,14.54
2022-09-27T11:28:38.393Z,14.65
2022-09-27T11:31:26.845Z,14.83
2022-09-27T11:34:30.284Z,14.95
2022-09-27T11:37:04.344Z,15.06
2022-09-27T11:39:38.811Z,15.15
2022-09-27T11:42:45.263Z,15.24
2022-09-27T11:46:03.226Z,15.25
2022-09-27T11:48:44.294Z,15.25
2022-09-27T11:51:35.899Z,15.36
2022-09-27T11:54:14.678Z,15.35
2022-09-27T11:57:21.894Z,15.35
2022-09-27T11:59:51.995Z,15.39
2022-09-27T12:02:26.066Z,15.45
2022-09-27T12:05:08.523Z,15.49
2022-09-27T12:08:26.273Z,15.56
2022-09-27T12:11:22.785Z,15.55
2022-09-27T12:14:00.423Z,15.50
2022-09-27T12:16:28.990Z,15.50
2022-09-27T12:18:58.757Z,15.49
2022-09-27T12:21:42.694Z,15.51
2022-09-27T12:24:19.563Z,15.55
2022-09-27T12:27:04.002Z,15.54
2022-09-27T12:29:39.591Z,15.54
2022-09-27T12:32:44.641Z,15.64
2022-09-27T12:35:50.244Z,15.63
2022-09-27T12:38:32.413Z,15.48
2022-09-27T12:41:01.823Z,15.56
2022-09-27T12:43:48.784Z,15.57
2022-09-27T12:46:38.569Z,15.60
2022-09-27T12:49:17.834Z,15.60
2022-09-27T12:52:13.293Z,15.59
2022-09-27T12:55:12.523Z,15.54
2022-09-27T12:57:47.505Z,15.59
2022-09-27T13:00:25.423Z,15.55
2022-09-27T13:03:30.224Z,15.66
2022-09-27T13:06:16.453Z,15.67
2022-09-27T13:09:15.837Z,15.68
2022-09-27T13:11:55.454Z,15.66
2022-09-27T13:14:26.183Z,15.68
2022-09-27T13:16:53.413Z,15.66
2022-09-27T13:19:44.523Z,15.61
2022-09-27T13:22:38.213Z,15.62
2022-09-27T13:25:56.775Z,15.58
2022-09-27T13:28:51.973Z,15.58
2022-09-27T13:31:57.984Z,15.63
2022-09-27T13:35:21.085Z,15.70
2022-09-27T13:38:01.144Z,15.70
2022-09-27T13:40:36.956Z,15.81
2022-09-27T13:43:42.078Z,15.85
2022-09-27T13:46:35.675Z,15.91
2022-09-27T13:49:12.424Z,15.90
2022-09-27T13:52:03.944Z,15.93
2022-09-27T13:54:34.074Z,15.93
2022-09-27T13:57:06.774Z,15.98
2022-09-27T13:59:57.865Z,16.04
2022-09-27T14:03:25.393Z,16.06
2022-09-27T14:06:17.605Z,16.19
2022-09-27T14:09:15.236Z,16.31
2022-09-27T14:11:48.964Z,16.32
2022-09-27T14:14:21.723Z,16.29
2022-09-27T14:16:54.634Z,16.33
2022-09-27T14:19:25.955Z,16.32
2022-09-27T14:22:13.724Z,16.38
2022-09-27T14:25:04.259Z,16.44
2022-09-27T14:27:40.223Z,16.35
2022-09-27T14:30:30.176Z,16.41
2022-09-27T14:33:34.824Z,16.33
2022-09-27T14:36:45.250Z,16.39
2022-09-27T14:39:15.574Z,16.34
2022-09-27T14:41:44.963Z,16.35
2022-09-27T14:44:18.844Z,16.30
2022-09-27T14:46:46.591Z,16.23
2022-09-27T14:49:20.356Z,16.15
2022-09-27T14:51:56.305Z,16.11
2022-09-27T14:54:27.034Z,16.06
2022-09-27T14:56:56.365Z,15.99
2022-09-27T14:59:34.853Z,15.90
2022-09-27T15:02:15.394Z,15.85
2022-09-27T15:04:47.049Z,15.75
2022-09-27T15:07:17.220Z,15.64
2022-09-27T15:09:45.783Z,15.64
2022-09-27T15:12:25.124Z,15.64
2022-09-27T15:14:54.713Z,15.57
2022-09-27T15:17:22.653Z,15.48
2022-09-27T15:20:22.373Z,15.49
2022-09-27T15:22:49.396Z,15.51
2022-09-27T15:25:25.204Z,15.45
2022-09-27T15:27:54.985Z,15.52
2022-09-27T15:30:30.096Z,15.53
2022-09-27T15:32:57.918Z,15.56
2022-09-27T15:35:33.833Z,15.57
2022-09-27T15:38:47.632Z,15.59
2022-09-27T15:41:20.510Z,15.63
2022-09-27T15:43:49.935Z,15.63
2022-09-27T15:46:23.049Z,15.61
2022-09-27T15:49:18.097Z,15.61
2022-09-27T15:51:47.387Z,15.62
2022-09-27T15:54:17.460Z,15.64
2022-09-27T15:56:44.674Z,15.65
2022-09-27T15:59:20.891Z,15.66
2022-09-27T16:01:48.646Z,15.65
2022-09-27T16:04:15.573Z,15.65
2022-09-27T16:06:44.275Z,15.63
2022-09-27T16:09:17.933Z,15.63
2022-09-27T16:11:46.963Z,15.61
2022-09-27T16:14:16.955Z,15.64
2022-09-27T16:16:50.765Z,15.64
2022-09-27T16:19:17.993Z,15.59
2022-09-27T16:21:46.004Z,15.56
2022-09-27T16:24:13.194Z,15.53
2022-09-27T16:26:40.177Z,15.51
2022-09-27T16:29:12.584Z,15.49
2022-09-27T16:31:41.395Z,15.47
2022-09-27T16:34:12.655Z,15.46
2022-09-27T16:36:40.903Z,15.41
2022-09-27T16:39:13.013Z,15.37
2022-09-27T16:41:43.893Z,15.35
2022-09-27T16:44:14.306Z,15.33
2022-09-27T16:46:42.139Z,15.29
2022-09-27T16:49:31.823Z,15.23
2022-09-27T16:52:02.304Z,15.19
2022-09-27T16:54:30.045Z,15.16
2022-09-27T16:56:58.511Z,15.13
2022-09-27T16:59:25.982Z,15.09
2022-09-27T17:01:58.329Z,15.06
2022-09-27T17:04:27.810Z,15.04
2022-09-27T17:06:55.847Z,15.01
2022-09-27T17:09:22.883Z,14.96
2022-09-27T17:11:50.605Z,14.89
2022-09-27T17:14:17.897Z,14.85
2022-09-27T17:16:45.999Z,14.84
2022-09-27T17:19:18.576Z,14.84
2022-09-27T17:21:46.333Z,14.79
2022-09-27T17:24:13.636Z,14.76
2022-09-27T17:26:41.175Z,14.75
2022-09-27T17:29:09.740Z,14.73
2022-09-27T17:31:38.546Z,14.68
2022-09-27T17:34:06.193Z,14.65
2022-09-27T17:36:35.723Z,14.62
2022-09-27T17:39:03.498Z,14.57
2022-09-27T17:41:30.853Z,14.55
2022-09-27T17:44:01.894Z,14.51
2022-09-27T17:46:34.345Z,14.44
2022-09-27T17:49:20.792Z,14.41
2022-09-27T17:51:49.916Z,14.37
2022-09-27T17:54:19.888Z,14.27
2022-09-27T17:56:47.863Z,14.25
2022-09-27T17:59:16.313Z,14.17
2022-09-27T18:01:45.302Z,14.16
2022-09-27T18:04:16.516Z,14.04
2022-09-27T18:06:46.575Z,13.97
2022-09-27T18:09:16.320Z,13.94
2022-09-27T18:11:44.384Z,13.88
2022-09-27T18:14:12.518Z,13.84
2022-09-27T18:16:44.433Z,13.79
2022-09-27T18:19:15.465Z,13.81
2022-09-27T18:21:43.265Z,13.74
2022-09-27T18:24:11.064Z,13.72
2022-09-27T18:26:39.084Z,13.69
2022-09-27T18:29:21.813Z,13.60
2022-09-27T18:31:49.523Z,13.54
2022-09-27T18:34:18.360Z,13.51
2022-09-27T18:36:45.984Z,13.43
2022-09-27T18:39:18.336Z,13.35
2022-09-27T18:41:47.921Z,13.25
2022-09-27T18:44:15.465Z,13.25
2022-09-27T18:46:42.890Z,13.12
2022-09-27T18:49:12.574Z,13.24
2022-09-27T18:51:44.965Z,13.21
2022-09-27T18:54:18.894Z,13.09
2022-09-27T18:56:47.957Z,13.16
2022-09-27T18:59:16.753Z,13.10
2022-09-27T19:01:47.830Z,13.07
2022-09-27T19:04:25.072Z,13.09
2022-09-27T19:06:53.653Z,13.08
2022-09-27T19:09:20.978Z,13.07
2022-09-27T19:11:48.340Z,12.97
2022-09-27T19:14:20.533Z,12.98
2022-09-27T19:16:48.346Z,12.94
2022-09-27T19:19:20.265Z,12.93
2022-09-27T19:21:48.197Z,12.82
2022-09-27T19:24:16.073Z,12.83
2022-09-27T19:26:43.471Z,12.84
2022-09-27T19:29:10.988Z,12.81
2022-09-27T19:31:38.046Z,12.78
2022-09-27T19:34:05.174Z,12.79
2022-09-27T19:36:32.185Z,12.76
2022-09-27T19:39:00.251Z,12.71
2022-09-27T19:41:27.601Z,12.60
2022-09-27T19:43:55.869Z,12.59
2022-09-27T19:46:25.009Z,12.59
2022-09-27T19:48:52.627Z,12.59
2022-09-27T19:51:22.214Z,12.57
2022-09-27T19:53:49.944Z,12.56
2022-09-27T19:56:17.496Z,12.52
2022-09-27T19:58:44.747Z,12.51
2022-09-27T20:01:16.324Z,12.51
2022-09-27T20:03:44.549Z,12.40
2022-09-27T20:06:12.766Z,12.40
2022-09-27T20:08:39.634Z,12.44
2022-09-27T20:11:09.314Z,12.44
2022-09-27T20:13:37.926Z,12.41
2022-09-27T20:16:06.359Z,12.42
2022-09-27T20:18:33.456Z,12.41
2022-09-27T20:21:04.357Z,12.29
2022-09-27T20:23:32.723Z,12.28
2022-09-27T20:26:00.233Z,12.15
2022-09-27T20:28:28.003Z,12.11
2022-09-27T20:31:03.003Z,12.11
2022-09-27T20:33:49.803Z,12.02
2022-09-27T20:36:31.951Z,11.94
2022-09-27T20:39:04.047Z,11.90
2022-09-27T20:41:42.942Z,11.78
2022-09-27T20:44:15.763Z,11.75
2022-09-27T20:46:46.685Z,11.73
2022-09-27T20:49:17.676Z,11.74
2022-09-27T20:51:48.773Z,11.63
2022-09-27T20:54:15.753Z,11.53
2022-09-27T20:56:46.315Z,11.56
2022-09-27T20:59:21.936Z,11.56
2022-09-27T21:01:51.542Z,11.51
2022-09-27T21:04:19.714Z,11.52
2022-09-27T21:06:46.572Z,11.47
2022-09-27T21:09:18.986Z,11.49
2022-09-27T21:11:47.834Z,11.41
2022-09-27T21:14:14.921Z,11.33
2022-09-27T21:16:42.125Z,11.29
2022-09-27T21:19:10.000Z,11.21
2022-09-27T21:21:37.180Z,11.18
2022-09-27T21:24:04.293Z,11.13
2022-09-27T21:26:32.937Z,11.02
2022-09-27T21:29:01.815Z,10.95
2022-09-27T21:31:33.150Z,10.87
2022-09-27T21:34:03.637Z,10.86
2022-09-27T21:36:35.233Z,10.84
2022-09-27T21:39:03.723Z,10.83
2022-09-27T21:41:30.696Z,10.83
2022-09-27T21:43:57.807Z,10.75
2022-09-27T21:46:26.749Z,10.76
2022-09-27T21:48:57.017Z,10.74
2022-09-27T21:51:25.653Z,10.56
2022-09-27T21:54:01.355Z,10.55
2022-09-27T21:56:33.765Z,10.62
2022-09-27T21:59:00.874Z,10.64
2022-09-27T22:01:30.136Z,10.61
2022-09-27T22:03:58.097Z,10.61
2022-09-27T22:06:30.103Z,10.60
2022-09-27T22:08:59.785Z,10.62
2022-09-27T22:11:29.523Z,10.58
2022-09-27T22:13:57.413Z,10.58
2022-09-27T22:16:26.197Z,10.58
2022-09-27T22:18:55.395Z,10.59
2022-09-27T22:21:25.144Z,10.52
2022-09-27T22:23:55.776Z,10.54
2022-09-27T22:26:29.826Z,10.61
2022-09-27T22:28:57.134Z,10.58
2022-09-27T22:31:24.311Z,10.52
2022-09-27T22:33:52.294Z,10.51
2022-09-27T22:36:19.284Z,10.46
2022-09-27T22:38:46.474Z,10.43
2022-09-27T22:41:13.895Z,10.33
2022-09-27T22:43:40.894Z,10.36
2022-09-27T22:46:08.613Z,10.36
2022-09-27T22:48:36.953Z,10.34
2022-09-27T22:51:04.323Z,10.33
2022-09-27T22:53:32.406Z,10.34
2022-09-27T22:56:04.294Z,10.36
2022-09-27T22:58:32.264Z,10.38
2022-09-27T23:01:00.394Z,10.39
2022-09-27T23:03:27.398Z,10.41
2022-09-27T23:05:54.353Z,10.41
2022-09-27T23:08:21.828Z,10.38
2022-09-27T23:10:48.714Z,10.43
2022-09-27T23:13:15.635Z,10.44
2022-09-27T23:15:42.553Z,10.44
2022-09-27T23:18:10.283Z,10.48
2022-09-27T23:20:37.344Z,10.48
2022-09-27T23:23:04.393Z,10.41
2022-09-27T23:25:31.253Z,10.42
2022-09-27T23:27:58.454Z,10.43
2022-09-27T23:30:25.953Z,10.40
2022-09-27T23:32:54.543Z,10.36
2022-09-27T23:35:22.545Z,10.32
2022-09-27T23:37:52.773Z,10.35
2022-09-27T23:40:19.709Z,10.36
2022-09-27T23:42:46.783Z,10.37
2022-09-27T23:45:16.105Z,10.38
2022-09-27T23:47:43.163Z,10.41
2022-09-27T23:50:10.473Z,10.41
2022-09-27T23:52:37.433Z,10.42
2022-09-27T23:55:04.683Z,10.42
2022-09-27T23:57:31.813Z,10.35
2022-09-27T23:59:58.663Z,10.38
